Time;durP1;ratioP1;P1;durP2;ratioP2;P2;SDS_P1;SDS_P2;PMS_P1;PMS_P2;Temp;Humidity;BMP_temperature;BMP_pressure;BME280_temperature;BME280_humidity;BME280_pressure;Samples;Min_cycle;Max_cycle;Signal;HPM_P1;HPM_P2
2023/09/27 00:01:10;;;;;;;8.23;3.90;;;;;;;23.90;100.00;56616.03;5043254;28;20278;-66
2023/09/27 00:03:37;;;;;;;8.13;3.97;;;;;;;23.90;100.00;56616.03;5043101;28;20195;-67
2023/09/27 00:06:04;;;;;;;6.47;3.72;;;;;;;24.55;100.00;56616.03;5042289;28;20664;-67
2023/09/27 00:08:31;;;;;;;10.70;3.75;;;;;;;23.90;100.00;56616.03;5041927;28;20300;-66
2023/09/27 00:10:58;;;;;;;11.38;3.50;;;;;;;24.55;100.00;56616.03;5042414;28;20607;-65
2023/09/27 00:13:26;;;;;;;8.10;3.75;;;;;;;24.55;100.00;56616.03;5042513;28;20199;-67
2023/09/27 00:15:52;;;;;;;7.57;4.07;;;;;;;-142.91;100.00;56616.03;5042046;28;20227;-67
2023/09/27 00:18:19;;;;;;;5.93;3.83;;;;;;;24.55;100.00;56616.03;5042343;28;20218;-67
2023/09/27 00:20:46;;;;;;;7.82;3.90;;;;;;;24.55;100.00;56616.03;5045471;28;20203;-66
2023/09/27 00:23:12;;;;;;;12.90;4.28;;;;;;;28.45;100.00;56616.03;5044749;28;20207;-66
2023/09/27 00:25:39;;;;;;;10.00;3.70;;;;;;;24.55;100.00;56616.03;5046434;28;20271;-66
2023/09/27 00:28:06;;;;;;;6.75;3.53;;;;;;;24.55;100.00;56616.03;5047270;28;20230;-68
2023/09/27 00:30:35;;;;;;;8.95;3.53;;;;;;;24.55;100.00;56616.03;5046702;28;20231;-65
2023/09/27 00:33:02;;;;;;;10.82;3.55;;;;;;;24.55;100.00;56616.03;5047325;28;20223;-65
2023/09/27 00:35:29;;;;;;;10.63;3.95;;;;;;;24.55;100.00;56616.03;5046536;28;20649;-67
2023/09/27 00:37:57;;;;;;;12.40;4.50;;;;;;;24.55;100.00;56616.03;5045952;28;20750;-67
2023/09/27 00:40:25;;;;;;;12.52;6.28;;;;;;;24.55;100.00;56616.03;5046963;28;20195;-66
2023/09/27 00:42:52;;;;;;;13.45;6.65;;;;;;;24.55;100.00;56616.03;5047468;28;20631;-66
2023/09/27 00:45:19;;;;;;;17.52;6.05;;;;;;;24.55;100.00;56616.03;5046228;28;20203;-66
2023/09/27 00:47:50;;;;;;;10.95;5.40;;;;;;;24.55;100.00;56616.03;5046869;28;20214;-66
2023/09/27 00:50:17;;;;;;;12.27;5.45;;;;;;;;;;5045755;28;20634;-67
2023/09/27 00:52:46;;;;;;;10.65;4.93;;;;;;;-142.91;100.00;56616.03;5047479;28;20207;-66
2023/09/27 00:55:19;;;;;;;6.68;6.07;;;;;;;23.90;100.00;56616.03;5045060;28;20292;-66
2023/09/27 00:57:46;;;;;;;9.77;4.68;;;;;;;-142.91;100.00;56616.03;5046876;28;20294;-66
2023/09/27 01:00:14;;;;;;;9.95;4.55;;;;;;;23.90;100.00;56616.03;5046205;28;20294;-65
2023/09/27 01:02:42;;;;;;;11.00;4.45;;;;;;;23.90;100.00;56616.03;5047145;28;20245;-67
2023/09/27 01:05:10;;;;;;;9.18;5.38;;;;;;;24.55;100.00;56616.03;5046548;28;20199;-67
2023/09/27 01:07:38;;;;;;;17.30;6.15;;;;;;;24.55;100.00;56616.03;5046612;28;20199;-67
2023/09/27 01:10:06;;;;;;;11.25;5.35;;;;;;;23.90;100.00;56616.03;5046787;28;20210;-67
2023/09/27 01:12:33;;;;;;;16.45;5.10;;;;;;;23.90;100.00;56616.03;5046832;28;20276;-65
2023/09/27 01:15:00;;;;;;;16.85;4.75;;;;;;;24.55;100.00;56616.03;5046040;28;20238;-66
2023/09/27 01:17:27;;;;;;;12.38;5.22;;;;;;;24.55;100.00;56616.03;5045363;28;20638;-66
2023/09/27 01:19:54;;;;;;;13.02;4.38;;;;;;;23.57;100.00;56616.03;5046290;28;20261;-67
2023/09/27 01:22:22;;;;;;;9.07;5.00;;;;;;;-142.91;100.00;56616.03;5046770;28;20203;-65
2023/09/27 01:24:52;;;;;;;9.45;4.32;;;;;;;-142.91;100.00;56616.03;5046645;28;20296;-67
2023/09/27 01:27:20;;;;;;;10.00;4.82;;;;;;;-142.91;100.00;56616.03;5045862;28;20326;-65
2023/09/27 01:29:47;;;;;;;11.55;4.38;;;;;;;-142.91;100.00;56616.03;5045070;28;20207;-66
2023/09/27 01:32:13;;;;;;;10.68;6.18;;;;;;;-142.91;100.00;56616.03;5045959;28;20615;-66
2023/09/27 01:34:39;;;;;;;11.80;5.70;;;;;;;24.55;100.00;56616.03;5045977;28;20211;-66
2023/09/27 01:37:08;;;;;;;13.23;6.50;;;;;;;24.55;100.00;56616.03;5046468;28;20257;-67
2023/09/27 01:39:35;;;;;;;12.57;4.50;;;;;;;24.55;100.00;56616.03;5046639;28;20307;-67
2023/09/27 01:42:04;;;;;;;6.55;4.35;;;;;;;24.55;100.00;56616.03;5045620;28;20207;-67
2023/09/27 01:44:31;;;;;;;10.23;4.88;;;;;;;-142.91;100.00;56616.03;5045766;28;20292;-65
2023/09/27 01:46:57;;;;;;;9.00;5.28;;;;;;;-142.91;100.00;56616.03;5046328;28;20230;-67
2023/09/27 01:49:24;;;;;;;13.25;5.57;;;;;;;-142.91;100.00;56616.03;5045815;28;20199;-66
2023/09/27 01:51:51;;;;;;;8.40;5.55;;;;;;;24.55;100.00;56616.03;5045664;28;20219;-67
2023/09/27 01:54:18;;;;;;;6.30;5.45;;;;;;;-142.91;100.00;56616.03;5045620;28;20199;-66
2023/09/27 01:56:44;;;;;;;12.27;6.88;;;;;;;-142.91;100.00;56616.03;5045956;28;20207;-67
2023/09/27 01:59:12;;;;;;;9.88;4.85;;;;;;;-142.91;100.00;56616.03;5044344;28;20680;-66
2023/09/27 02:01:39;;;;;;;13.77;5.45;;;;;;;23.41;100.00;56616.03;5044659;28;20277;-67
2023/09/27 02:04:06;;;;;;;12.15;7.03;;;;;;;-142.91;100.00;56616.03;5044577;28;20261;-67
2023/09/27 02:06:33;;;;;;;11.50;6.57;;;;;;;-142.91;100.00;56616.03;5044302;28;20418;-66
2023/09/27 02:08:59;;;;;;;10.57;5.32;;;;;;;23.25;100.00;56616.03;5043994;28;20676;-66
2023/09/27 02:11:26;;;;;;;11.93;4.70;;;;;;;-142.91;100.00;56616.03;5042519;28;20305;-67
2023/09/27 02:13:53;;;;;;;15.98;7.93;;;;;;;-142.91;100.00;56616.03;5044050;28;20284;-67
2023/09/27 02:16:21;;;;;;;20.83;7.63;;;;;;;-142.91;100.00;56616.03;5043505;28;20249;-68
2023/09/27 02:18:49;;;;;;;9.63;6.20;;;;;;;-142.91;100.00;56616.03;5044205;28;20210;-67
2023/09/27 02:21:15;;;;;;;13.80;6.05;;;;;;;-142.91;100.00;56616.03;5044850;28;20218;-68
2023/09/27 02:23:42;;;;;;;14.10;7.03;;;;;;;-142.91;100.00;56616.03;5045455;28;20231;-68
2023/09/27 02:26:09;;;;;;;10.27;5.07;;;;;;;-142.91;100.00;56616.03;5044999;28;20199;-67
2023/09/27 02:28:36;;;;;;;9.45;4.72;;;;;;;23.25;100.00;56616.03;5045759;28;20296;-67
2023/09/27 02:31:03;;;;;;;12.60;5.78;;;;;;;-142.91;100.00;56616.03;5044546;28;20276;-66
2023/09/27 02:33:31;;;;;;;12.10;5.88;;;;;;;-142.91;100.00;56616.03;5045101;28;20214;-67
2023/09/27 02:35:58;;;;;;;16.10;4.95;;;;;;;24.55;100.00;56616.03;5043856;28;20234;-66
2023/09/27 02:38:25;;;;;;;11.07;4.82;;;;;;;-142.91;100.00;56616.03;5045240;28;20203;-69
2023/09/27 02:40:52;;;;;;;21.27;6.93;;;;;;;-142.91;100.00;56616.03;5044953;28;20222;-67
2023/09/27 02:43:19;;;;;;;7.68;4.80;;;;;;;-142.91;100.00;56616.03;5045091;28;20203;-67
2023/09/27 02:45:46;;;;;;;11.75;5.82;;;;;;;-142.91;100.00;56616.03;5044940;28;20288;-66
2023/09/27 02:48:13;;;;;;;8.10;4.20;;;;;;;-142.91;100.00;56616.03;5044911;28;20210;-66
2023/09/27 02:50:41;;;;;;;8.43;4.00;;;;;;;23.27;100.00;56616.03;5044656;28;20703;-66
2023/09/27 02:53:08;;;;;;;9.90;4.55;;;;;;;-142.91;100.00;56616.03;5044481;28;20787;-67
2023/09/27 02:55:35;;;;;;;12.48;5.47;;;;;;;-142.91;100.00;56616.03;5044426;28;20725;-66
2023/09/27 02:58:01;;;;;;;7.05;5.13;;;;;;;-142.91;100.00;56616.03;5045103;28;20297;-66
2023/09/27 03:00:28;;;;;;;10.95;6.10;;;;;;;-142.91;100.00;56616.03;5044654;28;20647;-66
2023/09/27 03:02:56;;;;;;;17.40;6.05;;;;;;;-142.91;100.00;56616.03;5045625;28;20201;-67
2023/09/27 03:05:23;;;;;;;13.73;6.93;;;;;;;23.26;100.00;56616.03;5045517;28;20703;-66
2023/09/27 03:07:51;;;;;;;9.57;7.47;;;;;;;-142.91;100.00;56616.03;5045845;28;20197;-67
2023/09/27 03:10:18;;;;;;;9.82;7.13;;;;;;;-142.91;100.00;56616.03;5045080;28;20202;-67
2023/09/27 03:12:47;;;;;;;10.80;6.97;;;;;;;-142.91;100.00;56616.03;5045524;28;20258;-66
2023/09/27 03:15:14;;;;;;;8.80;6.55;;;;;;;-142.91;100.00;56616.03;5045202;28;20214;-66
2023/09/27 03:17:41;;;;;;;14.80;6.90;;;;;;;-142.91;100.00;56616.03;5045355;28;20202;-67
2023/09/27 03:20:15;;;;;;;15.45;6.90;;;;;;;-142.91;100.00;56616.03;5045409;28;20202;-66
2023/09/27 03:22:42;;;;;;;17.77;7.63;;;;;;;-142.91;100.00;56616.03;5044696;28;20235;-66
2023/09/27 03:25:11;;;;;;;10.90;7.72;;;;;;;-142.91;100.00;56616.03;5044914;28;20583;-66
2023/09/27 03:27:39;;;;;;;8.70;6.55;;;;;;;-142.91;100.00;56616.03;5044522;28;20250;-66
2023/09/27 03:30:07;;;;;;;12.02;6.85;;;;;;;;;;5045831;28;20238;-66
2023/09/27 03:32:33;;;;;;;10.07;6.57;;;;;;;-142.91;100.00;56616.03;5044731;28;21299;-65
2023/09/27 03:35:00;;;;;;;11.68;6.75;;;;;;;-142.91;100.00;56616.03;5045708;28;20307;-66
2023/09/27 03:37:27;;;;;;;11.40;5.50;;;;;;;-142.91;100.00;56616.03;5044845;28;20234;-68
2023/09/27 03:39:55;;;;;;;8.98;4.60;;;;;;;23.25;100.00;56616.03;5045337;28;20746;-65
2023/09/27 03:42:23;;;;;;;11.98;5.32;;;;;;;23.25;100.00;56616.03;5045281;28;20288;-66
2023/09/27 03:44:50;;;;;;;7.10;5.25;;;;;;;-142.91;100.00;56616.03;5044658;28;20286;-67
2023/09/27 03:47:17;;;;;;;6.00;4.65;;;;;;;23.25;100.00;56616.03;5042497;28;20211;-66
2023/09/27 03:49:43;;;;;;;9.38;5.22;;;;;;;;;;5046521;28;20195;-65
2023/09/27 03:52:10;;;;;;;16.20;6.55;;;;;;;23.25;100.00;56616.03;5044780;28;20226;-65
2023/09/27 03:54:37;;;;;;;10.50;5.13;;;;;;;23.25;100.00;56616.03;5048546;28;20243;-67
2023/09/27 03:57:05;;;;;;;6.40;4.68;;;;;;;23.25;100.00;56616.03;5048714;28;20218;-68
2023/09/27 03:59:33;;;;;;;9.52;6.13;;;;;;;23.25;100.00;56616.03;5049627;28;20222;-67
2023/09/27 04:01:59;;;;;;;6.80;5.03;;;;;;;23.25;100.00;56616.03;5047259;28;20254;-68
2023/09/27 04:04:26;;;;;;;8.35;4.43;;;;;;;23.25;100.00;56616.03;5047896;28;20265;-68
2023/09/27 04:06:53;;;;;;;10.35;5.53;;;;;;;23.25;100.00;56616.03;5047659;28;20290;-68
2023/09/27 04:09:20;;;;;;;8.63;5.60;;;;;;;23.25;100.00;56616.03;5047453;28;20280;-67
2023/09/27 04:11:47;;;;;;;7.53;5.07;;;;;;;23.25;100.00;56616.03;5046987;28;20897;-68
2023/09/27 04:14:13;;;;;;;14.65;5.05;;;;;;;;;;5046565;28;20306;-66
2023/09/27 04:16:42;;;;;;;10.48;4.97;;;;;;;23.25;100.00;56616.03;5046795;28;20207;-66
2023/09/27 04:19:08;;;;;;;5.47;4.97;;;;;;;;;;5047147;28;20291;-66
2023/09/27 04:21:35;;;;;;;9.48;4.93;;;;;;;;;;5046982;28;20227;-66
2023/09/27 04:24:03;;;;;;;8.18;4.47;;;;;;;;;;5046790;28;20642;-66
2023/09/27 04:26:30;;;;;;;7.60;5.03;;;;;;;;;;5047819;28;20704;-66
2023/09/27 04:28:57;;;;;;;12.35;5.40;;;;;;;23.25;100.00;56616.03;5048282;28;20217;-69
2023/09/27 04:31:24;;;;;;;11.82;5.32;;;;;;;23.25;100.00;56616.03;5048131;28;20321;-66
2023/09/27 04:33:52;;;;;;;15.40;5.15;;;;;;;-142.91;100.00;56616.03;5048481;28;20255;-65
2023/09/27 04:36:19;;;;;;;10.50;5.03;;;;;;;23.25;100.00;56616.03;5048115;28;20249;-68
2023/09/27 04:38:46;;;;;;;10.75;5.15;;;;;;;23.25;100.00;56616.03;5047697;28;20207;-66
2023/09/27 04:41:17;;;;;;;7.93;5.07;;;;;;;23.25;100.00;56616.03;5047763;28;20202;-66
2023/09/27 04:43:44;;;;;;;9.23;6.07;;;;;;;23.25;100.00;56616.03;5047860;28;20600;-67
2023/09/27 04:46:12;;;;;;;7.53;5.05;;;;;;;23.25;100.00;56616.03;5048520;28;20210;-66
2023/09/27 04:48:39;;;;;;;8.10;5.80;;;;;;;;;;5048216;28;20293;-67
2023/09/27 04:51:07;;;;;;;12.90;6.85;;;;;;;23.25;100.00;56616.03;5048116;28;20704;-66
2023/09/27 04:53:37;;;;;;;15.57;6.82;;;;;;;23.25;100.00;56616.03;5047261;28;20313;-65
2023/09/27 04:56:04;;;;;;;12.27;7.03;;;;;;;23.25;100.00;56616.03;5048333;28;20226;-66
2023/09/27 04:58:31;;;;;;;10.13;5.90;;;;;;;23.25;100.00;56616.03;5047385;28;20207;-67
2023/09/27 05:00:57;;;;;;;12.07;5.72;;;;;;;23.25;100.00;56616.03;5047604;28;20199;-67
2023/09/27 05:03:24;;;;;;;11.15;4.72;;;;;;;;;;5046956;28;20660;-68
2023/09/27 05:05:50;;;;;;;13.00;5.07;;;;;;;;;;5046347;28;20253;-66
2023/09/27 05:08:18;;;;;;;13.70;4.40;;;;;;;;;;5047157;28;20268;-66
2023/09/27 05:10:44;;;;;;;14.52;5.10;;;;;;;;;;5047815;28;20297;-67
2023/09/27 05:13:11;;;;;;;12.45;5.00;;;;;;;23.25;100.00;56616.03;5047396;28;20696;-66
2023/09/27 05:15:38;;;;;;;8.57;4.88;;;;;;;;;;5047224;28;20276;-65
2023/09/27 05:18:05;;;;;;;12.50;5.47;;;;;;;23.25;100.00;56616.03;5047197;28;20593;-66
2023/09/27 05:20:31;;;;;;;8.65;4.80;;;;;;;23.25;100.00;56616.03;5046839;28;20715;-68
2023/09/27 05:22:58;;;;;;;10.00;5.30;;;;;;;23.25;100.00;56616.03;5046974;28;20661;-66
2023/09/27 05:25:26;;;;;;;11.20;5.20;;;;;;;;;;5047334;28;20757;-66
2023/09/27 05:27:53;;;;;;;18.70;5.32;;;;;;;23.25;100.00;56616.03;5046958;28;20308;-67
2023/09/27 05:30:21;;;;;;;10.63;4.72;;;;;;;23.25;100.00;56616.03;5046809;28;20698;-67
2023/09/27 05:32:48;;;;;;;10.95;5.15;;;;;;;23.25;100.00;56616.03;5046794;28;20264;-66
2023/09/27 05:35:14;;;;;;;10.57;5.53;;;;;;;23.25;100.00;56616.03;5046864;28;20195;-66
2023/09/27 05:37:42;;;;;;;17.08;6.53;;;;;;;23.25;100.00;56616.03;5047086;28;20683;-67
2023/09/27 05:40:10;;;;;;;11.00;5.38;;;;;;;23.25;100.00;56616.03;5047237;28;20203;-68
2023/09/27 05:42:39;;;;;;;16.38;5.38;;;;;;;23.25;100.00;56616.03;5047455;28;20302;-68
2023/09/27 05:45:08;;;;;;;15.65;6.28;;;;;;;23.25;100.00;56616.03;5046523;28;20199;-68
2023/09/27 05:47:35;;;;;;;10.40;5.35;;;;;;;23.25;100.00;56616.03;5047096;28;20282;-67
2023/09/27 05:50:01;;;;;;;9.32;5.80;;;;;;;23.25;100.00;56616.03;5046142;28;20301;-67
2023/09/27 05:52:28;;;;;;;8.80;5.18;;;;;;;23.25;100.00;56616.03;5046216;28;20250;-67
2023/09/27 05:54:56;;;;;;;8.85;5.35;;;;;;;23.25;100.00;56616.03;5046574;28;20245;-68
2023/09/27 05:57:23;;;;;;;12.23;5.47;;;;;;;23.25;100.00;56616.03;5046804;28;20251;-67
2023/09/27 05:59:51;;;;;;;10.23;5.43;;;;;;;23.25;100.00;56616.03;5046299;28;20203;-66
2023/09/27 06:02:20;;;;;;;11.40;5.25;;;;;;;23.25;100.00;56616.03;5045160;28;20253;-66
2023/09/27 06:04:48;;;;;;;6.65;4.47;;;;;;;23.25;100.00;56616.03;5044342;28;20272;-67
2023/09/27 06:07:17;;;;;;;9.70;5.72;;;;;;;23.25;100.00;56616.03;5045128;28;20292;-68
2023/09/27 06:09:44;;;;;;;10.32;5.05;;;;;;;23.25;100.00;56616.03;5044929;28;20195;-67
2023/09/27 06:12:12;;;;;;;14.05;5.75;;;;;;;23.25;100.00;56616.03;5045103;28;20231;-67
2023/09/27 06:14:39;;;;;;;11.27;5.43;;;;;;;23.25;100.00;56616.03;5044204;28;20210;-68
2023/09/27 06:17:07;;;;;;;15.50;5.80;;;;;;;23.25;100.00;56616.03;5044810;28;20239;-66
2023/09/27 06:19:34;;;;;;;9.95;4.47;;;;;;;23.25;100.00;56616.03;5043747;28;20292;-68
2023/09/27 06:22:04;;;;;;;15.93;5.40;;;;;;;23.25;100.00;56616.03;5045053;28;20238;-67
2023/09/27 06:24:31;;;;;;;6.20;4.90;;;;;;;23.25;100.00;56616.03;5043599;28;20293;-68
2023/09/27 06:26:57;;;;;;;9.52;5.07;;;;;;;;;;5046252;28;20282;-67
2023/09/27 06:29:24;;;;;;;14.68;4.50;;;;;;;23.25;100.00;56616.03;5045778;28;20730;-67
2023/09/27 06:31:51;;;;;;;9.95;4.40;;;;;;;;;;5046169;28;20700;-68
2023/09/27 06:34:19;;;;;;;10.25;5.22;;;;;;;23.25;100.00;56616.03;5045538;28;20223;-67
2023/09/27 06:36:48;;;;;;;11.75;4.97;;;;;;;23.25;100.00;56616.03;5045559;28;20297;-67
2023/09/27 06:39:16;;;;;;;14.70;4.43;;;;;;;;;;5045801;28;20239;-66
2023/09/27 06:41:44;;;;;;;5.93;5.00;;;;;;;23.25;100.00;56616.03;5046355;28;20214;-69
2023/09/27 06:44:12;;;;;;;17.02;5.05;;;;;;;;;;5045794;28;20290;-68
2023/09/27 06:46:38;;;;;;;11.13;5.07;;;;;;;;;;5046624;28;20195;-68
2023/09/27 06:49:05;;;;;;;11.90;5.03;;;;;;;;;;5045182;28;20226;-67
2023/09/27 06:51:33;;;;;;;11.70;5.30;;;;;;;23.25;100.00;56616.03;5045428;28;20210;-66
2023/09/27 06:54:00;;;;;;;7.47;4.60;;;;;;;;;;5045941;28;20246;-67
2023/09/27 06:56:27;;;;;;;14.02;4.82;;;;;;;23.25;100.00;56616.03;5046057;28;20257;-67
2023/09/27 06:58:53;;;;;;;7.82;5.28;;;;;;;23.25;100.00;56616.03;5045200;28;20199;-66
2023/09/27 07:01:21;;;;;;;11.05;4.55;;;;;;;23.25;100.00;56616.03;5045014;28;20249;-66
2023/09/27 07:03:48;;;;;;;6.70;4.10;;;;;;;23.25;100.00;56616.03;5045500;28;20567;-67
2023/09/27 07:06:15;;;;;;;9.85;4.95;;;;;;;23.25;100.00;56616.03;5046073;28;20215;-67
2023/09/27 07:08:46;;;;;;;21.92;4.50;;;;;;;23.25;100.00;56616.03;5045592;28;20226;-67
2023/09/27 07:11:14;;;;;;;11.38;4.80;;;;;;;23.25;100.00;56616.03;5045594;28;20646;-67
2023/09/27 07:13:42;;;;;;;8.75;4.88;;;;;;;23.25;100.00;56616.03;5045608;28;20223;-68
2023/09/27 07:16:25;;;;;;;7.32;4.07;;;;;;;-142.91;100.00;56616.03;5045377;28;20672;-66
2023/09/27 07:18:52;;;;;;;10.10;5.10;;;;;;;23.25;100.00;56616.03;5045918;28;20298;-67
2023/09/27 07:21:20;;;;;;;11.10;5.05;;;;;;;23.25;100.00;56616.03;5044980;28;20727;-66
2023/09/27 07:23:49;;;;;;;5.60;4.13;;;;;;;23.25;100.00;56616.03;5045749;28;20203;-68
2023/09/27 07:26:16;;;;;;;12.18;4.50;;;;;;;23.25;100.00;56616.03;5045112;28;20234;-66
2023/09/27 07:28:42;;;;;;;14.73;4.43;;;;;;;23.25;100.00;56616.03;5047248;28;20206;-68
2023/09/27 07:31:09;;;;;;;5.40;4.43;;;;;;;23.25;100.00;56616.03;5049510;28;20306;-65
2023/09/27 07:33:36;;;;;;;5.20;4.10;;;;;;;;;;5049337;28;20623;-66
2023/09/27 07:36:04;;;;;;;22.92;5.03;;;;;;;;;;5049341;28;20206;-67
2023/09/27 07:38:31;;;;;;;15.85;4.75;;;;;;;;;;5049351;28;20207;-67
2023/09/27 07:40:59;;;;;;;8.40;4.35;;;;;;;;;;5049368;28;20234;-69
2023/09/27 07:43:25;;;;;;;17.40;5.15;;;;;;;;;;5049576;28;20286;-68
2023/09/27 07:45:54;;;;;;;9.10;4.05;;;;;;;;;;5049540;28;20281;-66
2023/09/27 07:48:21;;;;;;;19.25;5.13;;;;;;;;;;5049390;28;20198;-68
2023/09/27 07:50:48;;;;;;;10.38;3.83;;;;;;;;;;5048812;28;20205;-68
2023/09/27 07:53:14;;;;;;;14.15;3.83;;;;;;;;;;5048797;28;20268;-67
2023/09/27 07:55:46;;;;;;;13.07;3.17;;;;;;;;;;5049622;28;20195;-66
2023/09/27 07:58:14;;;;;;;14.82;3.95;;;;;;;;;;5048739;28;20203;-67
2023/09/27 08:00:40;;;;;;;12.07;3.20;;;;;;;;;;5049022;28;20234;-66
2023/09/27 08:03:07;;;;;;;7.25;3.80;;;;;;;;;;5046097;28;20257;-67
2023/09/27 08:05:42;;;;;;;7.72;3.60;;;;;;;;;;5048242;28;20213;-66
2023/09/27 08:08:09;;;;;;;8.13;3.45;;;;;;;;;;5048832;28;20239;-67
2023/09/27 08:10:36;;;;;;;12.13;3.42;;;;;;;;;;5047552;28;20265;-67
2023/09/27 08:13:04;;;;;;;6.68;3.67;;;;;;;;;;5046785;28;20247;-67
2023/09/27 08:15:32;;;;;;;4.15;2.90;;;;;;;;;;5046843;28;20203;-66
2023/09/27 08:17:58;;;;;;;7.35;3.45;;;;;;;;;;5047276;28;20238;-66
2023/09/27 08:20:25;;;;;;;4.25;3.10;;;;;;;;;;5046521;28;20610;-67
2023/09/27 08:22:51;;;;;;;9.43;3.15;;;;;;;;;;5046772;28;20252;-67
2023/09/27 08:25:18;;;;;;;5.70;3.97;;;;;;;;;;5049001;28;20203;-67
2023/09/27 08:27:45;;;;;;;10.80;3.50;;;;;;;;;;5048184;28;20322;-69
2023/09/27 08:30:12;;;;;;;8.15;2.97;;;;;;;;;;5047808;28;20572;-68
2023/09/27 08:32:40;;;;;;;3.22;2.83;;;;;;;;;;5048335;28;20720;-66
2023/09/27 08:35:07;;;;;;;5.22;3.55;;;;;;;;;;5048491;28;20230;-65
2023/09/27 08:37:34;;;;;;;4.88;2.97;;;;;;;;;;5048059;28;20334;-67
2023/09/27 08:40:00;;;;;;;7.47;3.83;;;;;;;;;;5047853;28;20264;-68
2023/09/27 08:42:28;;;;;;;5.18;3.25;;;;;;;;;;5048407;28;20247;-67
2023/09/27 08:44:55;;;;;;;9.73;3.42;;;;;;;;;;5047520;28;20230;-66
2023/09/27 08:47:23;;;;;;;3.72;3.42;;;;;;;;;;5047475;28;20601;-67
2023/09/27 08:49:51;;;;;;;9.20;3.55;;;;;;;;;;5048049;28;20239;-68
2023/09/27 08:52:17;;;;;;;6.25;3.78;;;;;;;;;;5047903;28;20202;-68
2023/09/27 08:54:44;;;;;;;6.05;3.45;;;;;;;;;;5048010;28;20307;-67
2023/09/27 08:57:11;;;;;;;4.72;3.75;;;;;;;;;;5047710;28;20778;-67
2023/09/27 08:59:38;;;;;;;8.55;4.55;;;;;;;;;;5047933;28;20292;-67
2023/09/27 09:02:06;;;;;;;10.77;3.28;;;;;;;;;;5047660;28;20281;-67
2023/09/27 09:04:33;;;;;;;5.95;3.35;;;;;;;;;;5047440;28;20771;-67
2023/09/27 09:07:01;;;;;;;16.15;3.78;;;;;;;;;;5048124;28;20195;-67
2023/09/27 09:09:30;;;;;;;6.72;4.30;;;;;;;;;;5047669;28;20203;-67
2023/09/27 09:11:58;;;;;;;10.13;4.20;;;;;;;;;;5047960;28;20210;-67
2023/09/27 09:14:37;;;;;;;9.80;4.32;;;;;;;;;;5047242;28;20324;-67
2023/09/27 09:17:04;;;;;;;4.85;3.53;;;;;;;;;;5047482;28;20298;-66
2023/09/27 09:19:31;;;;;;;3.53;3.22;;;;;;;;;;5046821;28;20191;-68
2023/09/27 09:21:59;;;;;;;8.43;3.35;;;;;;;;;;5047775;28;20207;-66
2023/09/27 09:24:27;;;;;;;6.60;3.50;;;;;;;;;;5047621;28;20215;-68
2023/09/27 09:27:04;;;;;;;5.40;3.80;;;;;;;;;;5046855;28;20329;-67
2023/09/27 09:29:44;;;;;;;11.30;3.55;;;;;;;;;;5046634;28;20202;-67
2023/09/27 09:32:11;;;;;;;7.07;3.90;;;;;;;;;;5047577;28;20310;-67
2023/09/27 09:34:40;;;;;;;5.35;3.95;;;;;;;;;;5047183;28;20229;-66
2023/09/27 09:37:15;;;;;;;10.40;3.42;;;;;;;;;;5044502;28;20646;-65
2023/09/27 09:39:43;;;;;;;10.70;3.17;;;;;;;;;;5044839;28;20277;-67
2023/09/27 09:42:09;;;;;;;5.50;3.20;;;;;;;;;;5045382;28;20234;-67
2023/09/27 09:44:36;;;;;;;6.55;3.63;;;;;;;;;;5046399;28;20199;-66
2023/09/27 09:47:09;;;;;;;4.93;3.58;;;;;;;;;;5046728;28;20203;-68
2023/09/27 09:49:36;;;;;;;7.90;3.90;;;;;;;;;;5047258;28;20661;-68
2023/09/27 09:52:05;;;;;;;9.70;4.30;;;;;;;;;;5045084;28;20230;-68
2023/09/27 09:54:37;;;;;;;8.60;3.42;;;;;;;-142.91;100.00;56616.03;5045163;28;20246;-69
2023/09/27 09:57:06;;;;;;;10.43;5.57;;;;;;;;;;5042809;28;20199;-67
2023/09/27 09:59:35;;;;;;;23.73;15.43;;;;;;;;;;5044381;28;20214;-67
2023/09/27 10:02:05;;;;;;;11.10;7.90;;;;;;;;;;5043115;28;20684;-69
2023/09/27 10:04:31;;;;;;;16.95;6.95;;;;;;;;;;5042777;28;20217;-70
2023/09/27 10:07:00;;;;;;;7.13;3.95;;;;;;;;;;5043381;28;20234;-67
2023/09/27 10:09:28;;;;;;;13.57;6.28;;;;;;;;;;5043681;28;20199;-67
2023/09/27 10:11:55;;;;;;;7.30;3.60;;;;;;;;;;5044242;28;20321;-67
2023/09/27 10:14:23;;;;;;;13.20;5.00;;;;;;;;;;5042150;28;20308;-68
2023/09/27 10:16:50;;;;;;;11.93;5.32;;;;;;;;;;5044175;28;20854;-68
2023/09/27 10:19:25;;;;;;;11.73;4.50;;;;;;;;;;5044082;28;20205;-67
2023/09/27 10:22:07;;;;;;;4.32;3.92;;;;;;;;;;5046172;28;20207;-68
2023/09/27 10:24:35;;;;;;;4.35;3.63;;;;;;;;;;5045374;28;20210;-68
2023/09/27 10:27:01;;;;;;;17.27;4.13;;;;;;;;;;5044641;28;20257;-68
2023/09/27 10:29:29;;;;;;;4.72;3.28;;;;;;;23.25;100.00;56616.03;5045615;28;20242;-69
2023/09/27 10:32:17;;;;;;;7.10;4.05;;;;;;;23.25;100.00;56616.03;5046497;28;20250;-67
2023/09/27 10:34:43;;;;;;;6.53;3.88;;;;;;;23.25;100.00;56616.03;5042428;28;20226;-68
2023/09/27 10:37:11;;;;;;;8.70;3.63;;;;;;;23.25;100.00;56616.03;5045911;28;20217;-67
2023/09/27 10:39:39;;;;;;;8.90;3.40;;;;;;;23.25;100.00;56616.03;5045897;28;20237;-67
2023/09/27 10:42:06;;;;;;;4.63;3.67;;;;;;;23.25;100.00;56616.03;5045320;28;20214;-67
2023/09/27 10:44:36;;;;;;;4.78;3.33;;;;;;;23.25;100.00;56616.03;5045554;28;20207;-68
2023/09/27 10:47:04;;;;;;;6.43;3.85;;;;;;;23.25;100.00;56616.03;5045627;28;20203;-68
2023/09/27 10:49:38;;;;;;;9.73;4.43;;;;;;;23.25;100.00;56616.03;5044123;28;20199;-68
2023/09/27 10:52:14;;;;;;;6.65;3.60;;;;;;;23.25;100.00;56616.03;5045364;28;20595;-67
2023/09/27 10:54:41;;;;;;;5.65;3.00;;;;;;;23.25;100.00;56616.03;5045698;28;20322;-67
2023/09/27 10:57:07;;;;;;;11.15;4.30;;;;;;;23.25;100.00;56616.03;5045091;28;20668;-69
2023/09/27 10:59:35;;;;;;;10.23;4.10;;;;;;;;;;5045691;28;20218;-66
2023/09/27 11:02:03;;;;;;;6.05;3.85;;;;;;;;;;5045195;28;20226;-68
2023/09/27 11:04:30;;;;;;;8.30;3.92;;;;;;;;;;5045733;28;20202;-67
2023/09/27 11:06:57;;;;;;;11.07;3.88;;;;;;;;;;5045541;28;20415;-68
2023/09/27 11:09:26;;;;;;;10.27;4.07;;;;;;;23.25;100.00;56616.03;5045284;28;20198;-67
2023/09/27 11:11:54;;;;;;;4.32;3.20;;;;;;;23.25;100.00;56616.03;5035374;28;20199;-67
2023/09/27 11:14:28;;;;;;;8.18;3.55;;;;;;;23.25;100.00;56616.03;5048744;28;20317;-67
2023/09/27 11:16:56;;;;;;;5.47;3.30;;;;;;;23.25;100.00;56616.03;5048285;28;20207;-67
2023/09/27 11:19:30;;;;;;;5.80;4.05;;;;;;;23.25;100.00;56616.03;5048821;28;20249;-67
2023/09/27 11:21:56;;;;;;;6.97;4.22;;;;;;;23.25;100.00;56616.03;5049710;28;20292;-68
2023/09/27 11:24:24;;;;;;;10.90;3.78;;;;;;;23.25;100.00;56616.03;5048693;28;20230;-66
2023/09/27 11:26:50;;;;;;;5.57;3.88;;;;;;;;;;5049062;28;20222;-68
2023/09/27 11:29:25;;;;;;;4.68;2.50;;;;;;;23.25;100.00;56616.03;5048809;28;20203;-68
2023/09/27 11:31:57;;;;;;;6.20;3.20;;;;;;;23.25;100.00;56616.03;5049079;28;20232;-67
2023/09/27 11:34:24;;;;;;;8.77;3.72;;;;;;;23.25;100.00;56616.03;5048594;28;20225;-68
2023/09/27 11:36:52;;;;;;;12.27;4.25;;;;;;;23.25;100.00;56616.03;5049358;28;20231;-67
2023/09/27 11:39:20;;;;;;;4.68;3.38;;;;;;;23.25;100.00;56616.03;5049076;28;20286;-68
2023/09/27 11:41:47;;;;;;;10.82;3.88;;;;;;;23.25;100.00;56616.03;5049166;28;20202;-67
2023/09/27 11:44:18;;;;;;;4.18;3.67;;;;;;;23.25;100.00;56616.03;5048397;28;20199;-67
2023/09/27 11:46:45;;;;;;;9.48;4.00;;;;;;;-142.91;100.00;56616.03;5048695;28;20632;-68
2023/09/27 11:49:13;;;;;;;13.25;4.22;;;;;;;;;;5048289;28;20205;-68
2023/09/27 11:51:40;;;;;;;6.38;4.10;;;;;;;23.25;100.00;56616.03;5048541;28;20641;-67
2023/09/27 11:54:07;;;;;;;9.80;3.78;;;;;;;-142.91;100.00;56616.03;5048212;28;20203;-67
2023/09/27 11:56:36;;;;;;;6.93;3.75;;;;;;;-142.91;100.00;56616.03;5047100;28;20242;-68
2023/09/27 11:59:03;;;;;;;6.15;3.65;;;;;;;;;;5048802;28;20234;-67
2023/09/27 12:01:48;;;;;;;6.35;3.30;;;;;;;23.25;100.00;56616.03;5048274;28;20203;-68
2023/09/27 12:04:16;;;;;;;5.55;3.58;;;;;;;23.25;100.00;56616.03;5044162;28;20696;-68
2023/09/27 12:06:43;;;;;;;3.58;2.88;;;;;;;23.25;100.00;56616.03;5046853;28;20237;-68
2023/09/27 12:09:11;;;;;;;7.97;3.72;;;;;;;-142.91;100.00;56616.03;5047144;28;20234;-68
2023/09/27 12:11:38;;;;;;;11.43;4.10;;;;;;;-142.91;100.00;56616.03;5046352;28;20676;-67
2023/09/27 12:14:05;;;;;;;6.57;3.72;;;;;;;-142.91;100.00;56616.03;5046912;28;20202;-68